CheckWX is a tool to help pilots better visualize weather data.  It is not intended as a substitute for an official pre-flight weather briefing.

16:34:10 UTC

TNCB TAF
Flamingo International Airport
Kralendijk, Caribbean Netherlands
TAF TNCB 181058Z 1812/1918 09020KT 9999 SCT020

Mar-18@
12:00 UTC

Mar-18 @ 12:00 UTC

Mar-19@
18:00 UTC

Mar-19 @ 18:00 UTC

TAF TNCB 181058Z 1812/1918 09020KT 9999 SCT020
Wind
  • 090° at 20 KTS
Cloud Levels
  • Scattered at 2,000' AGL